createdAt,value
2023-02-20T00:02:43.573Z,2.10
2023-02-20T00:07:48.393Z,2.75
2023-02-20T00:12:55.761Z,2.40
2023-02-20T00:18:00.478Z,1.80
2023-02-20T00:23:05.127Z,1.65
2023-02-20T00:28:12.464Z,1.67
2023-02-20T00:33:17.353Z,2.45
2023-02-20T00:38:22.470Z,0.93
2023-02-20T00:43:31.829Z,2.50
2023-02-20T00:48:36.503Z,1.17
2023-02-20T00:53:41.421Z,2.40
2023-02-20T00:58:48.774Z,1.40
2023-02-20T01:03:53.435Z,1.55
2023-02-20T01:08:58.127Z,2.60
2023-02-20T01:14:06.000Z,1.25
2023-02-20T01:19:10.649Z,1.25
2023-02-20T01:24:15.711Z,2.00
2023-02-20T01:29:23.228Z,1.50
2023-02-20T01:34:28.264Z,1.42
2023-02-20T01:39:33.631Z,2.22
2023-02-20T01:44:42.548Z,2.08
2023-02-20T01:49:48.995Z,2.10
2023-02-20T01:54:55.798Z,1.50
2023-02-20T02:00:04.198Z,1.67
2023-02-20T02:05:10.899Z,2.10
2023-02-20T02:10:17.103Z,2.67
2023-02-20T02:15:25.929Z,2.88
2023-02-20T02:20:45.570Z,4.47
2023-02-20T02:25:56.121Z,7.13
2023-02-20T02:31:18.046Z,3.08
2023-02-20T02:36:34.066Z,2.80
2023-02-20T02:41:43.595Z,14.63
2023-02-20T02:46:53.231Z,3.30
2023-02-20T02:52:01.236Z,4.00
2023-02-20T02:57:20.943Z,3.67
2023-02-20T03:02:26.730Z,3.55
2023-02-20T03:07:35.420Z,2.67
2023-02-20T03:12:45.914Z,2.28
2023-02-20T03:17:51.502Z,2.38
2023-02-20T03:22:59.745Z,3.45
2023-02-20T03:28:05.733Z,8.25
2023-02-20T03:33:25.558Z,3.88
2023-02-20T03:38:45.871Z,2.83
2023-02-20T03:43:51.257Z,3.63
2023-02-20T03:48:57.409Z,2.75
2023-02-20T03:54:04.848Z,3.78
2023-02-20T03:59:12.285Z,4.68
2023-02-20T04:04:19.637Z,3.30
2023-02-20T04:09:29.215Z,3.00
2023-02-20T04:14:35.010Z,7.70
2023-02-20T04:19:39.709Z,4.45
2023-02-20T04:24:49.697Z,5.22
2023-02-20T04:29:54.678Z,3.55
2023-02-20T04:34:59.435Z,3.30
2023-02-20T04:40:07.210Z,4.68
2023-02-20T04:45:12.115Z,5.03
2023-02-20T04:50:19.570Z,4.40
2023-02-20T04:55:26.972Z,4.72
2023-02-20T05:00:31.703Z,3.60
2023-02-20T05:05:36.463Z,4.72
2023-02-20T05:10:44.719Z,8.30
2023-02-20T05:15:49.814Z,11.80
2023-02-20T05:21:06.832Z,6.13
2023-02-20T05:26:14.994Z,5.50
2023-02-20T05:31:19.960Z,5.32
2023-02-20T05:36:24.739Z,11.05
2023-02-20T05:41:32.109Z,8.07
2023-02-20T05:46:41.697Z,29.90
2023-02-20T05:51:46.634Z,18.77
2023-02-20T05:56:54.507Z,12.95
2023-02-20T06:01:59.433Z,6.07
2023-02-20T06:07:04.098Z,8.15
2023-02-20T06:12:11.496Z,87.25
2023-02-20T06:17:16.210Z,40.25
2023-02-20T06:22:22.020Z,18.38
2023-02-20T06:27:29.363Z,22.58
2023-02-20T06:32:34.005Z,40.97
2023-02-20T06:37:38.821Z,12.63
2023-02-20T06:42:46.518Z,19.67
2023-02-20T06:47:51.283Z,25.17
2023-02-20T06:52:56.410Z,16.55
2023-02-20T06:58:04.303Z,27.00
2023-02-20T07:03:09.097Z,24.98
2023-02-20T07:08:13.825Z,29.70
2023-02-20T07:13:21.130Z,16.23
2023-02-20T07:18:27.596Z,18.30
2023-02-20T07:23:32.489Z,14.40
2023-02-20T07:28:40.200Z,15.35
2023-02-20T07:33:45.427Z,25.08
2023-02-20T07:38:56.266Z,14.20
2023-02-20T07:44:07.061Z,9.60
2023-02-20T07:49:11.926Z,10.82
2023-02-20T07:54:16.793Z,16.67
2023-02-20T07:59:24.221Z,16.63
2023-02-20T08:04:29.044Z,16.85
2023-02-20T08:09:33.801Z,6.10
2023-02-20T08:14:41.314Z,31.02
2023-02-20T08:19:46.292Z,10.30
2023-02-20T08:24:53.914Z,17.52
2023-02-20T08:30:02.035Z,9.52
2023-02-20T08:35:07.020Z,14.07
2023-02-20T08:40:12.676Z,9.25
2023-02-20T08:45:20.240Z,8.68
2023-02-20T08:50:25.050Z,6.10
2023-02-20T08:55:30.153Z,10.52
2023-02-20T09:00:37.945Z,7.05
2023-02-20T09:05:42.746Z,9.45
2023-02-20T09:10:47.892Z,17.50
2023-02-20T09:15:55.438Z,13.00
2023-02-20T09:21:00.449Z,9.73
2023-02-20T09:26:05.369Z,7.47
2023-02-20T09:31:12.934Z,5.05
2023-02-20T09:36:17.886Z,10.30
2023-02-20T09:41:29.173Z,5.00
2023-02-20T09:46:37.303Z,4.90
2023-02-20T09:51:43.291Z,5.28
2023-02-20T09:56:52.480Z,4.60
2023-02-20T10:02:02.945Z,9.70
2023-02-20T10:07:10.637Z,9.98
2023-02-20T10:12:21.456Z,4.40
2023-02-20T10:17:32.287Z,4.40
2023-02-20T10:22:38.592Z,5.90
2023-02-20T10:27:47.074Z,8.48
2023-02-20T10:32:58.324Z,4.53
2023-02-20T10:38:08.331Z,5.63
2023-02-20T10:43:15.549Z,8.45
2023-02-20T10:48:23.367Z,6.82
2023-02-20T10:53:31.830Z,12.00
2023-02-20T10:58:40.461Z,9.77
2023-02-20T11:03:50.565Z,4.85
2023-02-20T11:08:55.370Z,3.83
2023-02-20T11:14:01.388Z,3.22
2023-02-20T11:19:11.299Z,4.25
2023-02-20T11:29:27.638Z,2.97
2023-02-20T11:34:35.412Z,5.80
2023-02-20T11:39:40.478Z,6.50
2023-02-20T11:44:45.456Z,4.38
2023-02-20T11:49:53.490Z,4.22
2023-02-20T11:55:12.089Z,16.75
2023-02-20T12:00:20.369Z,2.15
2023-02-20T12:05:39.380Z,8.80
2023-02-20T12:10:46.421Z,13.80
2023-02-20T12:15:57.299Z,3.15
2023-02-20T12:21:07.761Z,10.13
2023-02-20T12:26:22.315Z,6.20
2023-02-20T12:31:35.524Z,7.25
2023-02-20T12:36:44.279Z,11.80
2023-02-20T12:41:52.840Z,4.75
2023-02-20T12:47:01.346Z,8.82
2023-02-20T12:52:15.392Z,3.05
2023-02-20T12:57:22.963Z,4.47
2023-02-20T13:02:41.332Z,4.65
2023-02-20T13:07:53.976Z,11.73
2023-02-20T13:12:58.740Z,5.57
2023-02-20T13:18:07.635Z,2.53
2023-02-20T13:23:27.183Z,6.05
2023-02-20T13:28:43.255Z,8.17
2023-02-20T13:33:49.232Z,2.97
2023-02-20T13:39:11.885Z,4.97
2023-02-20T13:44:31.439Z,2.78
2023-02-20T13:49:55.039Z,17.53
2023-02-20T13:55:06.046Z,19.92
2023-02-20T14:00:23.105Z,25.25
2023-02-20T14:05:29.792Z,14.20
2023-02-20T14:10:41.976Z,17.92
2023-02-20T14:15:52.538Z,12.63
2023-02-20T14:21:01.889Z,31.52
2023-02-20T14:26:20.902Z,13.77
2023-02-20T14:31:27.955Z,30.25
2023-02-20T14:36:48.083Z,18.33
2023-02-20T14:41:58.430Z,19.90
2023-02-20T14:47:05.405Z,16.02
2023-02-20T14:52:16.323Z,16.88
2023-02-20T14:57:23.666Z,16.08
2023-02-20T15:02:34.645Z,15.85
2023-02-20T15:07:46.031Z,16.92
2023-02-20T15:13:00.882Z,19.42
2023-02-20T15:18:09.322Z,37.88
2023-02-20T15:23:15.979Z,227.40
2023-02-20T15:28:31.279Z,148.15
2023-02-20T15:33:37.238Z,34.33
2023-02-20T15:38:42.295Z,25.98
2023-02-20T15:43:51.491Z,16.88
2023-02-20T15:48:57.449Z,18.17
2023-02-20T15:54:02.453Z,26.08
2023-02-20T15:59:12.258Z,35.55
2023-02-20T16:04:18.641Z,56.22
2023-02-20T16:09:23.387Z,31.85
2023-02-20T16:14:31.186Z,43.60
2023-02-20T16:19:42.650Z,37.70
2023-02-20T16:24:47.796Z,45.83
2023-02-20T16:29:55.637Z,33.22
2023-02-20T16:35:01.757Z,42.33
2023-02-20T16:40:06.637Z,58.38
2023-02-20T16:45:17.155Z,87.50
2023-02-20T16:50:23.899Z,121.63
2023-02-20T16:55:29.684Z,48.10
2023-02-20T17:00:51.054Z,51.08
2023-02-20T17:06:01.283Z,49.97
2023-02-20T17:11:06.200Z,71.13
2023-02-20T17:16:19.304Z,53.10
2023-02-20T17:21:30.541Z,65.57
2023-02-20T17:26:38.272Z,56.83
2023-02-20T17:31:45.900Z,98.07
2023-02-20T17:36:52.308Z,75.47
2023-02-20T17:41:58.050Z,88.68
2023-02-20T17:47:05.709Z,59.22
2023-02-20T17:52:10.708Z,69.30
2023-02-20T17:57:15.854Z,67.05
2023-02-20T18:02:23.494Z,101.53
2023-02-20T18:07:28.340Z,89.05
2023-02-20T18:12:33.134Z,117.18
2023-02-20T18:17:43.443Z,171.95
2023-02-20T18:27:54.493Z,53.38
2023-02-20T18:33:01.937Z,261.17
2023-02-20T18:38:10.018Z,111.60
2023-02-20T18:43:14.973Z,50.90
2023-02-20T18:48:22.535Z,80.35
2023-02-20T18:53:28.224Z,79.75
2023-02-20T18:58:33.038Z,83.35
2023-02-20T19:03:40.487Z,60.38
2023-02-20T19:08:45.251Z,42.70
2023-02-20T19:13:50.121Z,65.20
2023-02-20T19:18:58.385Z,141.60
2023-02-20T19:24:04.469Z,121.15
2023-02-20T19:29:09.286Z,171.30
2023-02-20T19:34:17.075Z,253.63
2023-02-20T19:39:22.405Z,129.77
2023-02-20T19:44:28.718Z,144.77
2023-02-20T19:49:37.584Z,55.42
2023-02-20T19:54:43.047Z,28.70
2023-02-20T19:59:47.763Z,32.25
2023-02-20T20:04:55.122Z,26.92
2023-02-20T20:10:02.779Z,24.67
2023-02-20T20:15:08.206Z,24.25
2023-02-20T20:20:16.395Z,23.38
2023-02-20T20:25:21.660Z,22.30
2023-02-20T20:30:28.474Z,28.45
2023-02-20T20:35:35.937Z,25.08
2023-02-20T20:40:42.203Z,23.02
2023-02-20T20:45:46.938Z,23.42
2023-02-20T20:50:54.296Z,21.85
2023-02-20T20:55:59.087Z,27.90
2023-02-20T21:01:04.040Z,26.98
2023-02-20T21:06:11.605Z,18.35
2023-02-20T21:11:17.154Z,18.90
2023-02-20T21:16:22.519Z,30.60
2023-02-20T21:21:33.712Z,22.27
2023-02-20T21:26:39.440Z,21.48
2023-02-20T21:31:45.142Z,21.08
2023-02-20T21:36:52.557Z,22.88
2023-02-20T21:42:10.109Z,21.75
2023-02-20T21:47:14.871Z,22.55
2023-02-20T21:52:22.368Z,23.38
2023-02-20T21:57:29.944Z,30.52
2023-02-20T22:02:31.760Z,27.63
2023-02-20T22:07:51.343Z,49.03
2023-02-20T22:13:09.395Z,24.35
2023-02-20T22:18:26.446Z,17.17
2023-02-20T22:23:46.187Z,28.02
2023-02-20T22:29:03.282Z,15.80
2023-02-20T22:34:20.511Z,15.50
2023-02-20T22:39:40.072Z,17.85
2023-02-20T22:44:57.166Z,18.15
2023-02-20T22:50:14.154Z,20.55
2023-02-20T22:55:33.784Z,15.75
2023-02-20T23:00:50.879Z,12.48
2023-02-20T23:06:17.441Z,15.80
2023-02-20T23:11:37.999Z,19.73
2023-02-20T23:16:56.752Z,16.73
2023-02-20T23:22:13.822Z,19.75
2023-02-20T23:27:33.571Z,13.23
2023-02-20T23:32:50.870Z,19.63
2023-02-20T23:38:07.847Z,13.30
2023-02-20T23:43:27.568Z,14.45
2023-02-20T23:48:44.787Z,13.98
2023-02-20T23:54:01.763Z,14.48
2023-02-20T23:59:21.372Z,14.13
